sensor_id;sensor_type;location;lat;lon;timestamp;temperature;humidity
7204;DHT22;3643;52.460;13.322;2023-10-19T00:00:56;6.90;99.90
7204;DHT22;3643;52.460;13.322;2023-10-19T00:03:24;7.10;99.90
7204;DHT22;3643;52.460;13.322;2023-10-19T00:05:52;6.80;99.90
7204;DHT22;3643;52.460;13.322;2023-10-19T00:08:21;6.80;99.90
7204;DHT22;3643;52.460;13.322;2023-10-19T00:10:51;6.80;99.90
7204;DHT22;3643;52.460;13.322;2023-10-19T00:13:36;6.80;99.90
7204;DHT22;3643;52.460;13.322;2023-10-19T00:16:06;6.80;99.90
7204;DHT22;3643;52.460;13.322;2023-10-19T00:18:39;6.80;99.90
7204;DHT22;3643;52.460;13.322;2023-10-19T00:21:09;6.80;99.90
7204;DHT22;3643;52.460;13.322;2023-10-19T00:23:49;6.80;99.90
7204;DHT22;3643;52.460;13.322;2023-10-19T00:26:22;6.80;99.90
7204;DHT22;3643;52.460;13.322;2023-10-19T00:28:52;6.80;99.90
7204;DHT22;3643;52.460;13.322;2023-10-19T00:31:22;6.80;99.90
7204;DHT22;3643;52.460;13.322;2023-10-19T00:33:51;6.80;99.90
7204;DHT22;3643;52.460;13.322;2023-10-19T00:36:19;6.80;99.90
7204;DHT22;3643;52.460;13.322;2023-10-19T00:38:50;6.80;99.90
7204;DHT22;3643;52.460;13.322;2023-10-19T00:41:21;6.70;99.90
7204;DHT22;3643;52.460;13.322;2023-10-19T00:43:51;6.70;99.90
7204;DHT22;3643;52.460;13.322;2023-10-19T00:46:25;6.70;99.90
7204;DHT22;3643;52.460;13.322;2023-10-19T00:49:00;6.70;99.90
7204;DHT22;3643;52.460;13.322;2023-10-19T00:51:35;6.80;99.90
7204;DHT22;3643;52.460;13.322;2023-10-19T00:54:20;6.80;99.90
7204;DHT22;3643;52.460;13.322;2023-10-19T00:56:53;6.70;99.90
7204;DHT22;3643;52.460;13.322;2023-10-19T00:59:26;6.70;99.90
7204;DHT22;3643;52.460;13.322;2023-10-19T01:01:57;6.70;99.90
7204;DHT22;3643;52.460;13.322;2023-10-19T01:04:43;6.70;99.90
7204;DHT22;3643;52.460;13.322;2023-10-19T01:07:13;6.70;99.90
7204;DHT22;3643;52.460;13.322;2023-10-19T01:09:50;6.70;99.90
7204;DHT22;3643;52.460;13.322;2023-10-19T01:12:20;6.70;99.90
7204;DHT22;3643;52.460;13.322;2023-10-19T01:15:02;6.70;99.90
7204;DHT22;3643;52.460;13.322;2023-10-19T01:17:33;6.80;99.90
7204;DHT22;3643;52.460;13.322;2023-10-19T01:20:07;6.60;99.90
7204;DHT22;3643;52.460;13.322;2023-10-19T01:22:52;6.60;99.90
7204;DHT22;3643;52.460;13.322;2023-10-19T01:25:44;6.70;99.90
7204;DHT22;3643;52.460;13.322;2023-10-19T01:28:28;6.70;99.90
7204;DHT22;3643;52.460;13.322;2023-10-19T01:31:10;6.60;99.90
7204;DHT22;3643;52.460;13.322;2023-10-19T01:33:42;6.60;99.90
7204;DHT22;3643;52.460;13.322;2023-10-19T01:36:11;6.70;99.90
7204;DHT22;3643;52.460;13.322;2023-10-19T01:38:42;6.70;99.90
7204;DHT22;3643;52.460;13.322;2023-10-19T01:41:09;6.70;99.90
7204;DHT22;3643;52.460;13.322;2023-10-19T01:43:41;6.70;99.90
7204;DHT22;3643;52.460;13.322;2023-10-19T01:46:10;6.70;99.90
7204;DHT22;3643;52.460;13.322;2023-10-19T01:48:50;6.70;99.90
7204;DHT22;3643;52.460;13.322;2023-10-19T01:51:21;6.70;99.90
7204;DHT22;3643;52.460;13.322;2023-10-19T01:53:51;6.70;99.90
7204;DHT22;3643;52.460;13.322;2023-10-19T01:56:18;6.70;99.90
7204;DHT22;3643;52.460;13.322;2023-10-19T01:58:49;6.70;99.90
7204;DHT22;3643;52.460;13.322;2023-10-19T02:01:18;6.70;99.90
7204;DHT22;3643;52.460;13.322;2023-10-19T02:03:57;6.70;99.90
7204;DHT22;3643;52.460;13.322;2023-10-19T02:06:28;6.60;99.90
7204;DHT22;3643;52.460;13.322;2023-10-19T02:09:03;6.60;99.90
7204;DHT22;3643;52.460;13.322;2023-10-19T02:11:44;6.70;99.90
7204;DHT22;3643;52.460;13.322;2023-10-19T02:14:13;6.70;99.90
7204;DHT22;3643;52.460;13.322;2023-10-19T02:16:42;6.70;99.90
7204;DHT22;3643;52.460;13.322;2023-10-19T02:19:10;6.70;99.90
7204;DHT22;3643;52.460;13.322;2023-10-19T02:21:39;6.70;99.90
7204;DHT22;3643;52.460;13.322;2023-10-19T02:24:08;6.70;99.90
7204;DHT22;3643;52.460;13.322;2023-10-19T02:26:41;6.80;99.90
7204;DHT22;3643;52.460;13.322;2023-10-19T02:29:09;6.80;99.90
7204;DHT22;3643;52.460;13.322;2023-10-19T02:31:37;6.80;99.90
7204;DHT22;3643;52.460;13.322;2023-10-19T02:34:05;6.70;99.90
7204;DHT22;3643;52.460;13.322;2023-10-19T02:36:33;6.70;99.90
7204;DHT22;3643;52.460;13.322;2023-10-19T02:39:03;6.70;99.90
7204;DHT22;3643;52.460;13.322;2023-10-19T02:41:36;6.80;99.90
7204;DHT22;3643;52.460;13.322;2023-10-19T02:44:04;6.80;99.90
7204;DHT22;3643;52.460;13.322;2023-10-19T02:46:36;6.80;99.90
7204;DHT22;3643;52.460;13.322;2023-10-19T02:49:06;6.80;99.90
7204;DHT22;3643;52.460;13.322;2023-10-19T02:51:37;6.80;99.90
7204;DHT22;3643;52.460;13.322;2023-10-19T02:54:05;6.80;99.90
7204;DHT22;3643;52.460;13.322;2023-10-19T02:56:35;6.80;99.90
7204;DHT22;3643;52.460;13.322;2023-10-19T02:59:03;6.80;99.90
7204;DHT22;3643;52.460;13.322;2023-10-19T03:01:32;6.80;99.90
7204;DHT22;3643;52.460;13.322;2023-10-19T03:04:01;6.80;99.90
7204;DHT22;3643;52.460;13.322;2023-10-19T03:06:31;6.80;99.90
7204;DHT22;3643;52.460;13.322;2023-10-19T03:09:03;6.80;99.90
7204;DHT22;3643;52.460;13.322;2023-10-19T03:11:41;6.80;99.90
7204;DHT22;3643;52.460;13.322;2023-10-19T03:14:08;6.80;99.90
7204;DHT22;3643;52.460;13.322;2023-10-19T03:16:38;6.80;99.90
7204;DHT22;3643;52.460;13.322;2023-10-19T03:19:08;6.80;99.90
7204;DHT22;3643;52.460;13.322;2023-10-19T03:21:36;6.80;99.90
7204;DHT22;3643;52.460;13.322;2023-10-19T03:24:08;6.80;99.90
7204;DHT22;3643;52.460;13.322;2023-10-19T03:26:51;6.80;99.90
7204;DHT22;3643;52.460;13.322;2023-10-19T03:29:18;6.80;99.90
7204;DHT22;3643;52.460;13.322;2023-10-19T03:31:49;6.80;99.90
7204;DHT22;3643;52.460;13.322;2023-10-19T03:34:18;6.80;99.90
7204;DHT22;3643;52.460;13.322;2023-10-19T03:36:46;6.80;99.90
7204;DHT22;3643;52.460;13.322;2023-10-19T03:39:14;6.80;99.90
7204;DHT22;3643;52.460;13.322;2023-10-19T03:41:44;6.80;99.90
7204;DHT22;3643;52.460;13.322;2023-10-19T03:44:14;6.80;99.90
7204;DHT22;3643;52.460;13.322;2023-10-19T03:46:46;6.80;99.90
7204;DHT22;3643;52.460;13.322;2023-10-19T03:49:24;6.80;99.90
7204;DHT22;3643;52.460;13.322;2023-10-19T03:51:57;6.80;99.90
7204;DHT22;3643;52.460;13.322;2023-10-19T03:54:47;6.90;99.90
7204;DHT22;3643;52.460;13.322;2023-10-19T03:57:17;6.80;99.90
7204;DHT22;3643;52.460;13.322;2023-10-19T03:59:51;6.80;99.90
7204;DHT22;3643;52.460;13.322;2023-10-19T04:02:23;6.80;99.90
7204;DHT22;3643;52.460;13.322;2023-10-19T04:04:51;6.80;99.90
7204;DHT22;3643;52.460;13.322;2023-10-19T04:07:22;6.80;99.90
7204;DHT22;3643;52.460;13.322;2023-10-19T04:09:53;6.80;99.90
7204;DHT22;3643;52.460;13.322;2023-10-19T04:12:56;7.00;99.90
7204;DHT22;3643;52.460;13.322;2023-10-19T04:15:29;6.80;99.90
7204;DHT22;3643;52.460;13.322;2023-10-19T04:18:00;6.80;99.90
7204;DHT22;3643;52.460;13.322;2023-10-19T04:20:29;6.80;99.90
7204;DHT22;3643;52.460;13.322;2023-10-19T04:23:08;6.80;99.90
7204;DHT22;3643;52.460;13.322;2023-10-19T04:25:44;6.80;99.90
7204;DHT22;3643;52.460;13.322;2023-10-19T04:28:13;7.10;99.90
7204;DHT22;3643;52.460;13.322;2023-10-19T04:30:43;6.80;99.90
7204;DHT22;3643;52.460;13.322;2023-10-19T04:33:11;6.80;99.90
7204;DHT22;3643;52.460;13.322;2023-10-19T04:35:42;6.80;99.90
7204;DHT22;3643;52.460;13.322;2023-10-19T04:38:10;7.00;99.90
7204;DHT22;3643;52.460;13.322;2023-10-19T04:40:38;6.80;99.90
7204;DHT22;3643;52.460;13.322;2023-10-19T04:43:06;6.80;99.90
7204;DHT22;3643;52.460;13.322;2023-10-19T04:45:35;6.80;99.90
7204;DHT22;3643;52.460;13.322;2023-10-19T04:48:08;6.80;99.90
7204;DHT22;3643;52.460;13.322;2023-10-19T04:50:36;6.80;99.90
7204;DHT22;3643;52.460;13.322;2023-10-19T04:53:06;6.80;99.90
7204;DHT22;3643;52.460;13.322;2023-10-19T04:55:34;6.80;99.90
7204;DHT22;3643;52.460;13.322;2023-10-19T04:58:02;6.80;99.90
7204;DHT22;3643;52.460;13.322;2023-10-19T05:00:32;6.80;99.90
7204;DHT22;3643;52.460;13.322;2023-10-19T05:03:00;6.80;99.90
7204;DHT22;3643;52.460;13.322;2023-10-19T05:05:30;7.10;99.90
7204;DHT22;3643;52.460;13.322;2023-10-19T05:07:58;6.80;99.90
7204;DHT22;3643;52.460;13.322;2023-10-19T05:10:26;6.80;99.90
7204;DHT22;3643;52.460;13.322;2023-10-19T05:12:54;6.80;99.90
7204;DHT22;3643;52.460;13.322;2023-10-19T05:15:22;6.80;99.90
7204;DHT22;3643;52.460;13.322;2023-10-19T05:17:50;6.80;99.90
7204;DHT22;3643;52.460;13.322;2023-10-19T05:20:18;6.80;99.90
7204;DHT22;3643;52.460;13.322;2023-10-19T05:22:49;6.80;99.90
7204;DHT22;3643;52.460;13.322;2023-10-19T05:25:17;6.80;99.90
7204;DHT22;3643;52.460;13.322;2023-10-19T05:27:45;6.70;99.90
7204;DHT22;3643;52.460;13.322;2023-10-19T05:30:14;6.70;99.90
7204;DHT22;3643;52.460;13.322;2023-10-19T05:32:42;6.60;99.90
7204;DHT22;3643;52.460;13.322;2023-10-19T05:35:13;6.50;99.90
7204;DHT22;3643;52.460;13.322;2023-10-19T05:37:50;6.50;99.90
7204;DHT22;3643;52.460;13.322;2023-10-19T05:40:19;6.50;99.90
7204;DHT22;3643;52.460;13.322;2023-10-19T05:42:47;6.50;99.90
7204;DHT22;3643;52.460;13.322;2023-10-19T05:45:15;6.40;99.90
7204;DHT22;3643;52.460;13.322;2023-10-19T05:47:44;6.40;99.90
7204;DHT22;3643;52.460;13.322;2023-10-19T05:50:12;6.30;99.90
7204;DHT22;3643;52.460;13.322;2023-10-19T05:52:42;6.30;99.90
7204;DHT22;3643;52.460;13.322;2023-10-19T05:55:12;6.30;99.90
7204;DHT22;3643;52.460;13.322;2023-10-19T05:57:41;6.20;99.90
7204;DHT22;3643;52.460;13.322;2023-10-19T06:00:11;6.20;99.90
7204;DHT22;3643;52.460;13.322;2023-10-19T06:02:44;6.10;99.90
7204;DHT22;3643;52.460;13.322;2023-10-19T06:05:14;6.10;99.90
7204;DHT22;3643;52.460;13.322;2023-10-19T06:07:44;6.10;99.90
7204;DHT22;3643;52.460;13.322;2023-10-19T06:10:15;6.10;99.90
7204;DHT22;3643;52.460;13.322;2023-10-19T06:12:44;6.00;99.90
7204;DHT22;3643;52.460;13.322;2023-10-19T06:15:13;6.00;99.90
7204;DHT22;3643;52.460;13.322;2023-10-19T06:17:43;5.90;99.90
7204;DHT22;3643;52.460;13.322;2023-10-19T06:20:13;6.00;99.90
7204;DHT22;3643;52.460;13.322;2023-10-19T06:22:52;6.00;99.90
7204;DHT22;3643;52.460;13.322;2023-10-19T06:25:23;6.00;99.90
7204;DHT22;3643;52.460;13.322;2023-10-19T06:27:52;5.90;99.90
7204;DHT22;3643;52.460;13.322;2023-10-19T06:30:23;5.90;99.90
7204;DHT22;3643;52.460;13.322;2023-10-19T06:32:53;5.80;99.90
7204;DHT22;3643;52.460;13.322;2023-10-19T06:35:22;6.00;99.90
7204;DHT22;3643;52.460;13.322;2023-10-19T06:37:50;5.90;99.90
7204;DHT22;3643;52.460;13.322;2023-10-19T06:40:23;5.70;99.90
7204;DHT22;3643;52.460;13.322;2023-10-19T06:42:55;5.70;99.90
7204;DHT22;3643;52.460;13.322;2023-10-19T06:45:24;5.80;99.90
7204;DHT22;3643;52.460;13.322;2023-10-19T06:47:53;5.80;99.90
7204;DHT22;3643;52.460;13.322;2023-10-19T06:50:22;5.80;99.90
7204;DHT22;3643;52.460;13.322;2023-10-19T06:52:51;5.70;99.90
7204;DHT22;3643;52.460;13.322;2023-10-19T06:55:23;5.80;99.90
7204;DHT22;3643;52.460;13.322;2023-10-19T06:57:53;5.80;99.90
7204;DHT22;3643;52.460;13.322;2023-10-19T07:00:23;5.80;99.90
7204;DHT22;3643;52.460;13.322;2023-10-19T07:02:55;5.90;99.90
7204;DHT22;3643;52.460;13.322;2023-10-19T07:05:23;5.90;99.90
7204;DHT22;3643;52.460;13.322;2023-10-19T07:07:52;5.90;99.90
7204;DHT22;3643;52.460;13.322;2023-10-19T07:10:25;5.90;99.90
7204;DHT22;3643;52.460;13.322;2023-10-19T07:12:55;5.90;99.90
7204;DHT22;3643;52.460;13.322;2023-10-19T07:15:25;5.80;99.90
7204;DHT22;3643;52.460;13.322;2023-10-19T07:17:54;6.00;99.90
7204;DHT22;3643;52.460;13.322;2023-10-19T07:20:22;6.00;99.90
7204;DHT22;3643;52.460;13.322;2023-10-19T07:22:54;6.10;99.90
7204;DHT22;3643;52.460;13.322;2023-10-19T07:25:24;6.10;99.90
7204;DHT22;3643;52.460;13.322;2023-10-19T07:27:53;6.10;99.90
7204;DHT22;3643;52.460;13.322;2023-10-19T07:30:22;6.20;99.90
7204;DHT22;3643;52.460;13.322;2023-10-19T07:32:53;6.30;99.90
7204;DHT22;3643;52.460;13.322;2023-10-19T07:35:26;6.30;99.90
7204;DHT22;3643;52.460;13.322;2023-10-19T07:37:55;6.40;99.90
7204;DHT22;3643;52.460;13.322;2023-10-19T07:40:25;6.40;99.90
7204;DHT22;3643;52.460;13.322;2023-10-19T07:42:55;6.50;99.90
7204;DHT22;3643;52.460;13.322;2023-10-19T07:45:23;6.60;99.90
7204;DHT22;3643;52.460;13.322;2023-10-19T07:47:52;6.70;99.90
7204;DHT22;3643;52.460;13.322;2023-10-19T07:50:21;6.70;99.90
7204;DHT22;3643;52.460;13.322;2023-10-19T07:52:50;6.70;99.90
7204;DHT22;3643;52.460;13.322;2023-10-19T07:55:21;6.70;99.90
7204;DHT22;3643;52.460;13.322;2023-10-19T07:57:53;6.70;99.90
7204;DHT22;3643;52.460;13.322;2023-10-19T08:00:21;6.70;99.90
7204;DHT22;3643;52.460;13.322;2023-10-19T08:02:52;6.70;99.90
7204;DHT22;3643;52.460;13.322;2023-10-19T08:05:21;6.70;99.90
7204;DHT22;3643;52.460;13.322;2023-10-19T08:07:49;6.70;99.90
7204;DHT22;3643;52.460;13.322;2023-10-19T08:10:19;6.70;99.90
7204;DHT22;3643;52.460;13.322;2023-10-19T08:12:48;6.70;99.90
7204;DHT22;3643;52.460;13.322;2023-10-19T08:15:19;6.80;99.90
7204;DHT22;3643;52.460;13.322;2023-10-19T08:17:48;6.80;99.90
7204;DHT22;3643;52.460;13.322;2023-10-19T08:20:17;6.90;99.90
7204;DHT22;3643;52.460;13.322;2023-10-19T08:22:53;6.90;99.90
7204;DHT22;3643;52.460;13.322;2023-10-19T08:25:25;6.90;99.90
7204;DHT22;3643;52.460;13.322;2023-10-19T08:28:02;6.90;99.90
7204;DHT22;3643;52.460;13.322;2023-10-19T08:30:33;7.00;99.90
7204;DHT22;3643;52.460;13.322;2023-10-19T08:33:01;7.00;99.90
7204;DHT22;3643;52.460;13.322;2023-10-19T08:35:29;7.10;99.90
7204;DHT22;3643;52.460;13.322;2023-10-19T08:37:58;7.00;99.90
7204;DHT22;3643;52.460;13.322;2023-10-19T08:40:27;7.10;99.90
7204;DHT22;3643;52.460;13.322;2023-10-19T08:42:55;7.10;99.90
7204;DHT22;3643;52.460;13.322;2023-10-19T08:45:24;7.10;99.90
7204;DHT22;3643;52.460;13.322;2023-10-19T08:47:55;7.10;99.90
7204;DHT22;3643;52.460;13.322;2023-10-19T08:50:25;7.10;99.90
7204;DHT22;3643;52.460;13.322;2023-10-19T08:52:56;7.10;99.90
7204;DHT22;3643;52.460;13.322;2023-10-19T08:55:25;7.10;99.90
7204;DHT22;3643;52.460;13.322;2023-10-19T08:58:14;7.20;99.90
7204;DHT22;3643;52.460;13.322;2023-10-19T09:00:45;7.20;99.90
7204;DHT22;3643;52.460;13.322;2023-10-19T09:03:17;7.30;99.90
7204;DHT22;3643;52.460;13.322;2023-10-19T09:05:46;7.30;99.90
7204;DHT22;3643;52.460;13.322;2023-10-19T09:08:16;7.40;99.90
7204;DHT22;3643;52.460;13.322;2023-10-19T09:10:46;7.50;99.90
7204;DHT22;3643;52.460;13.322;2023-10-19T09:13:16;7.50;99.90
7204;DHT22;3643;52.460;13.322;2023-10-19T09:15:47;7.50;99.90
7204;DHT22;3643;52.460;13.322;2023-10-19T09:18:19;7.40;99.90
7204;DHT22;3643;52.460;13.322;2023-10-19T09:20:50;7.40;99.90
7204;DHT22;3643;52.460;13.322;2023-10-19T09:23:23;7.40;99.90
7204;DHT22;3643;52.460;13.322;2023-10-19T09:25:53;7.30;99.90
7204;DHT22;3643;52.460;13.322;2023-10-19T09:28:21;7.30;99.90
7204;DHT22;3643;52.460;13.322;2023-10-19T09:30:51;7.40;99.90
7204;DHT22;3643;52.460;13.322;2023-10-19T09:33:22;7.40;99.90
7204;DHT22;3643;52.460;13.322;2023-10-19T09:35:51;7.50;99.90
7204;DHT22;3643;52.460;13.322;2023-10-19T09:38:23;7.50;99.90
7204;DHT22;3643;52.460;13.322;2023-10-19T09:40:53;7.50;99.90
7204;DHT22;3643;52.460;13.322;2023-10-19T09:43:28;7.50;99.90
7204;DHT22;3643;52.460;13.322;2023-10-19T09:46:01;7.50;99.90
7204;DHT22;3643;52.460;13.322;2023-10-19T09:48:30;7.50;99.90
7204;DHT22;3643;52.460;13.322;2023-10-19T09:51:03;7.40;99.90
7204;DHT22;3643;52.460;13.322;2023-10-19T09:53:32;7.50;99.90
7204;DHT22;3643;52.460;13.322;2023-10-19T09:56:01;7.50;99.90
7204;DHT22;3643;52.460;13.322;2023-10-19T09:58:41;7.50;99.90
7204;DHT22;3643;52.460;13.322;2023-10-19T10:01:12;7.40;99.90
7204;DHT22;3643;52.460;13.322;2023-10-19T10:03:44;7.40;99.90
7204;DHT22;3643;52.460;13.322;2023-10-19T10:21:27;7.50;99.90
7204;DHT22;3643;52.460;13.322;2023-10-19T10:23:57;7.40;99.90
7204;DHT22;3643;52.460;13.322;2023-10-19T10:26:27;7.30;99.90
7204;DHT22;3643;52.460;13.322;2023-10-19T10:29:11;7.30;99.90
7204;DHT22;3643;52.460;13.322;2023-10-19T10:31:44;7.20;99.90
7204;DHT22;3643;52.460;13.322;2023-10-19T10:34:43;7.20;99.90
7204;DHT22;3643;52.460;13.322;2023-10-19T10:37:13;7.20;99.90
7204;DHT22;3643;52.460;13.322;2023-10-19T10:39:41;7.20;99.90
7204;DHT22;3643;52.460;13.322;2023-10-19T10:42:12;7.20;99.90
7204;DHT22;3643;52.460;13.322;2023-10-19T10:44:43;7.10;99.90
7204;DHT22;3643;52.460;13.322;2023-10-19T10:47:15;7.10;99.90
7204;DHT22;3643;52.460;13.322;2023-10-19T10:49:48;7.00;99.90
7204;DHT22;3643;52.460;13.322;2023-10-19T10:52:29;7.00;99.90
7204;DHT22;3643;52.460;13.322;2023-10-19T10:55:05;7.00;99.90
7204;DHT22;3643;52.460;13.322;2023-10-19T10:57:34;7.20;99.90
7204;DHT22;3643;52.460;13.322;2023-10-19T11:00:05;7.00;99.90
7204;DHT22;3643;52.460;13.322;2023-10-19T11:02:35;7.00;99.90
7204;DHT22;3643;52.460;13.322;2023-10-19T11:05:12;7.00;99.90
7204;DHT22;3643;52.460;13.322;2023-10-19T11:08:02;6.90;99.90
7204;DHT22;3643;52.460;13.322;2023-10-19T11:10:31;6.90;99.90
7204;DHT22;3643;52.460;13.322;2023-10-19T11:13:03;6.90;99.90
7204;DHT22;3643;52.460;13.322;2023-10-19T11:15:32;6.90;99.90
7204;DHT22;3643;52.460;13.322;2023-10-19T11:18:01;6.90;99.90
7204;DHT22;3643;52.460;13.322;2023-10-19T11:20:29;6.90;99.90
7204;DHT22;3643;52.460;13.322;2023-10-19T11:22:59;6.90;99.90
7204;DHT22;3643;52.460;13.322;2023-10-19T11:25:29;6.90;99.90
7204;DHT22;3643;52.460;13.322;2023-10-19T11:28:00;6.90;99.90
7204;DHT22;3643;52.460;13.322;2023-10-19T11:30:32;6.90;99.90
7204;DHT22;3643;52.460;13.322;2023-10-19T11:33:00;6.90;99.90
7204;DHT22;3643;52.460;13.322;2023-10-19T11:35:30;7.00;99.90
7204;DHT22;3643;52.460;13.322;2023-10-19T11:38:00;6.90;99.90
7204;DHT22;3643;52.460;13.322;2023-10-19T11:40:31;7.10;99.90
7204;DHT22;3643;52.460;13.322;2023-10-19T11:42:59;7.00;99.90
7204;DHT22;3643;52.460;13.322;2023-10-19T11:45:28;7.00;99.90
7204;DHT22;3643;52.460;13.322;2023-10-19T11:47:56;7.00;99.90
7204;DHT22;3643;52.460;13.322;2023-10-19T11:50:25;6.90;99.90
7204;DHT22;3643;52.460;13.322;2023-10-19T11:52:53;6.80;99.90
7204;DHT22;3643;52.460;13.322;2023-10-19T11:55:24;6.80;99.90
7204;DHT22;3643;52.460;13.322;2023-10-19T11:57:52;6.80;99.90
7204;DHT22;3643;52.460;13.322;2023-10-19T12:00:20;6.80;99.90
7204;DHT22;3643;52.460;13.322;2023-10-19T12:02:51;6.70;99.90
7204;DHT22;3643;52.460;13.322;2023-10-19T12:05:20;6.70;99.90
7204;DHT22;3643;52.460;13.322;2023-10-19T12:07:48;6.70;99.90
7204;DHT22;3643;52.460;13.322;2023-10-19T12:10:16;6.80;99.90
7204;DHT22;3643;52.460;13.322;2023-10-19T12:12:48;6.80;99.90
7204;DHT22;3643;52.460;13.322;2023-10-19T12:15:29;6.70;99.90
7204;DHT22;3643;52.460;13.322;2023-10-19T12:17:57;6.80;99.90
7204;DHT22;3643;52.460;13.322;2023-10-19T12:20:26;6.80;99.90
7204;DHT22;3643;52.460;13.322;2023-10-19T12:22:54;6.80;99.90
7204;DHT22;3643;52.460;13.322;2023-10-19T12:25:23;6.80;99.90
7204;DHT22;3643;52.460;13.322;2023-10-19T12:28:04;6.90;99.90
7204;DHT22;3643;52.460;13.322;2023-10-19T12:30:32;6.90;99.90
7204;DHT22;3643;52.460;13.322;2023-10-19T12:33:04;6.90;99.90
7204;DHT22;3643;52.460;13.322;2023-10-19T12:35:39;6.90;99.90
7204;DHT22;3643;52.460;13.322;2023-10-19T12:38:12;6.90;99.90
7204;DHT22;3643;52.460;13.322;2023-10-19T12:40:44;6.90;99.90
7204;DHT22;3643;52.460;13.322;2023-10-19T12:43:15;6.90;99.90
7204;DHT22;3643;52.460;13.322;2023-10-19T12:45:45;6.90;99.90
7204;DHT22;3643;52.460;13.322;2023-10-19T12:48:20;6.90;99.90
7204;DHT22;3643;52.460;13.322;2023-10-19T12:50:48;6.90;99.90
7204;DHT22;3643;52.460;13.322;2023-10-19T12:53:16;7.00;99.90
7204;DHT22;3643;52.460;13.322;2023-10-19T12:55:45;6.90;99.90
7204;DHT22;3643;52.460;13.322;2023-10-19T12:58:14;7.00;99.90
7204;DHT22;3643;52.460;13.322;2023-10-19T13:00:46;7.00;99.90
7204;DHT22;3643;52.460;13.322;2023-10-19T13:03:15;7.00;99.90
7204;DHT22;3643;52.460;13.322;2023-10-19T13:05:44;7.00;99.90
7204;DHT22;3643;52.460;13.322;2023-10-19T13:08:13;7.20;99.90
7204;DHT22;3643;52.460;13.322;2023-10-19T13:10:43;7.00;99.90
7204;DHT22;3643;52.460;13.322;2023-10-19T13:13:14;7.10;99.90
7204;DHT22;3643;52.460;13.322;2023-10-19T13:15:44;6.30;99.90
7204;DHT22;3643;52.460;13.322;2023-10-19T13:18:14;7.00;99.90
7204;DHT22;3643;52.460;13.322;2023-10-19T13:20:47;7.00;99.90
7204;DHT22;3643;52.460;13.322;2023-10-19T13:23:15;6.90;99.90
7204;DHT22;3643;52.460;13.322;2023-10-19T13:25:46;7.00;99.90
7204;DHT22;3643;52.460;13.322;2023-10-19T13:28:19;7.00;99.90
7204;DHT22;3643;52.460;13.322;2023-10-19T13:30:48;6.90;99.90
7204;DHT22;3643;52.460;13.322;2023-10-19T13:33:17;7.00;99.90
7204;DHT22;3643;52.460;13.322;2023-10-19T13:35:48;7.00;99.90
7204;DHT22;3643;52.460;13.322;2023-10-19T13:38:17;7.00;99.90
7204;DHT22;3643;52.460;13.322;2023-10-19T13:40:47;7.00;99.90
7204;DHT22;3643;52.460;13.322;2023-10-19T13:43:18;6.90;99.90
7204;DHT22;3643;52.460;13.322;2023-10-19T13:45:47;7.00;99.90
7204;DHT22;3643;52.460;13.322;2023-10-19T13:48:15;6.90;99.90
7204;DHT22;3643;52.460;13.322;2023-10-19T13:50:46;6.90;99.90
7204;DHT22;3643;52.460;13.322;2023-10-19T13:53:16;6.90;99.90
7204;DHT22;3643;52.460;13.322;2023-10-19T13:55:44;6.80;99.90
7204;DHT22;3643;52.460;13.322;2023-10-19T13:58:13;6.80;99.90
7204;DHT22;3643;52.460;13.322;2023-10-19T14:00:43;6.80;99.90
7204;DHT22;3643;52.460;13.322;2023-10-19T14:03:12;6.80;99.90
7204;DHT22;3643;52.460;13.322;2023-10-19T14:05:42;6.90;99.90
7204;DHT22;3643;52.460;13.322;2023-10-19T14:08:15;6.90;99.90
7204;DHT22;3643;52.460;13.322;2023-10-19T14:10:44;6.90;99.90
7204;DHT22;3643;52.460;13.322;2023-10-19T14:13:12;6.90;99.90
7204;DHT22;3643;52.460;13.322;2023-10-19T14:15:43;6.90;99.90
7204;DHT22;3643;52.460;13.322;2023-10-19T14:18:11;6.80;99.90
7204;DHT22;3643;52.460;13.322;2023-10-19T14:20:40;6.80;99.90
7204;DHT22;3643;52.460;13.322;2023-10-19T14:23:08;6.80;99.90
7204;DHT22;3643;52.460;13.322;2023-10-19T14:25:37;6.80;99.90
7204;DHT22;3643;52.460;13.322;2023-10-19T14:28:07;6.80;99.90
7204;DHT22;3643;52.460;13.322;2023-10-19T14:30:36;6.80;99.90
7204;DHT22;3643;52.460;13.322;2023-10-19T14:33:06;6.80;99.90
7204;DHT22;3643;52.460;13.322;2023-10-19T14:35:38;6.80;99.90
7204;DHT22;3643;52.460;13.322;2023-10-19T14:38:09;6.70;99.90
7204;DHT22;3643;52.460;13.322;2023-10-19T14:40:41;6.70;99.90
7204;DHT22;3643;52.460;13.322;2023-10-19T14:43:11;6.70;99.90
7204;DHT22;3643;52.460;13.322;2023-10-19T14:45:41;6.70;99.90
7204;DHT22;3643;52.460;13.322;2023-10-19T14:48:11;6.70;99.90
7204;DHT22;3643;52.460;13.322;2023-10-19T14:50:42;6.70;99.90
7204;DHT22;3643;52.460;13.322;2023-10-19T14:53:10;6.70;99.90
7204;DHT22;3643;52.460;13.322;2023-10-19T14:55:39;6.70;99.90
7204;DHT22;3643;52.460;13.322;2023-10-19T14:58:07;6.70;99.90
7204;DHT22;3643;52.460;13.322;2023-10-19T15:00:36;6.70;99.90
7204;DHT22;3643;52.460;13.322;2023-10-19T15:03:08;6.70;99.90
7204;DHT22;3643;52.460;13.322;2023-10-19T15:05:39;6.70;99.90
7204;DHT22;3643;52.460;13.322;2023-10-19T15:08:08;6.70;99.90
7204;DHT22;3643;52.460;13.322;2023-10-19T15:10:40;6.70;99.90
7204;DHT22;3643;52.460;13.322;2023-10-19T15:13:09;6.70;99.90
7204;DHT22;3643;52.460;13.322;2023-10-19T15:15:37;6.70;99.90
7204;DHT22;3643;52.460;13.322;2023-10-19T15:18:05;6.70;99.90
7204;DHT22;3643;52.460;13.322;2023-10-19T15:20:34;6.70;99.90
7204;DHT22;3643;52.460;13.322;2023-10-19T15:23:04;6.70;99.90
7204;DHT22;3643;52.460;13.322;2023-10-19T15:25:33;6.70;99.90
7204;DHT22;3643;52.460;13.322;2023-10-19T15:28:03;6.80;99.90
7204;DHT22;3643;52.460;13.322;2023-10-19T15:30:32;6.70;99.90
7204;DHT22;3643;52.460;13.322;2023-10-19T15:33:00;6.70;99.90
7204;DHT22;3643;52.460;13.322;2023-10-19T15:35:29;6.90;99.90
7204;DHT22;3643;52.460;13.322;2023-10-19T15:37:57;6.00;99.90
7204;DHT22;3643;52.460;13.322;2023-10-19T15:40:27;6.80;99.90
7204;DHT22;3643;52.460;13.322;2023-10-19T15:42:55;6.70;99.90
7204;DHT22;3643;52.460;13.322;2023-10-19T15:45:26;6.70;99.90
7204;DHT22;3643;52.460;13.322;2023-10-19T15:47:54;6.80;99.90
7204;DHT22;3643;52.460;13.322;2023-10-19T15:50:24;6.80;99.90
7204;DHT22;3643;52.460;13.322;2023-10-19T15:52:52;6.80;99.90
7204;DHT22;3643;52.460;13.322;2023-10-19T15:55:22;6.80;99.90
7204;DHT22;3643;52.460;13.322;2023-10-19T15:57:52;6.80;99.90
7204;DHT22;3643;52.460;13.322;2023-10-19T16:00:21;6.80;99.90
7204;DHT22;3643;52.460;13.322;2023-10-19T16:02:49;6.80;99.90
7204;DHT22;3643;52.460;13.322;2023-10-19T16:05:18;6.70;99.90
7204;DHT22;3643;52.460;13.322;2023-10-19T16:07:47;6.80;99.90
7204;DHT22;3643;52.460;13.322;2023-10-19T16:10:15;6.80;99.90
7204;DHT22;3643;52.460;13.322;2023-10-19T16:12:45;6.80;99.90
7204;DHT22;3643;52.460;13.322;2023-10-19T16:15:15;6.80;99.90
7204;DHT22;3643;52.460;13.322;2023-10-19T16:17:43;7.10;99.90
7204;DHT22;3643;52.460;13.322;2023-10-19T16:20:13;6.80;99.90
7204;DHT22;3643;52.460;13.322;2023-10-19T16:22:42;6.90;99.90
7204;DHT22;3643;52.460;13.322;2023-10-19T16:25:11;6.80;99.90
7204;DHT22;3643;52.460;13.322;2023-10-19T16:27:39;6.80;99.90
7204;DHT22;3643;52.460;13.322;2023-10-19T16:30:08;6.80;99.90
7204;DHT22;3643;52.460;13.322;2023-10-19T16:32:41;6.80;99.90
7204;DHT22;3643;52.460;13.322;2023-10-19T16:35:09;6.80;99.90
7204;DHT22;3643;52.460;13.322;2023-10-19T16:37:38;6.80;99.90
7204;DHT22;3643;52.460;13.322;2023-10-19T16:40:07;6.80;99.90